Seaspan Chiwan — VRBH3 — position and weather

sailwx.info

Track history (hours):
 
Tides and Currents Weather Stations Pressure Air Temp Water Temp Dewpoint Dewpoint Depression Visibility Wind Speed Wind Dir Waves Ship Positions

Seaspan Chiwan

Last reported at 2016-Dec-01 13:16 UTC. Time now 2016-Dec-09 00:08 UTC.
Position N 16°10' W 062°55'.

Length 260 m; draft 12 m.

Type: Cargo ship. MMSI: 477014500.

Date/timePositionNaut miles runAvg speedWind from/ knotsBaromVisibWave heightAir tempDewpointWater temp
2016-Dec-01 13:16N 16°10' W 062°55'1318.2
2016-Dec-01 12:33N 16°14' W 062°42'1818.1
2016-Dec-01 11:34N 16°21' W 062°25'1818.1
2016-Dec-01 10:33N 16°27' W 062°07'1818.4
2016-Dec-01 09:33N 16°37' W 061°51'1818.2
2016-Dec-01 08:34N 16°46' W 061°34'1918.5
2016-Dec-01 07:33N 16°56' W 061°18'1818.4
2016-Dec-01 06:34N 17°06' W 061°02'1818.4
2016-Dec-01 05:33N 17°16' W 060°46'  
2016-Nov-22 09:12N 36°17' W 003°13'1014.8
2016-Nov-22 08:32N 36°19' W 003°01'1515.0
2016-Nov-22 07:33N 36°22' W 002°43'4915.2
2016-Nov-22 04:21N 36°42' W 001°48'1215.4
2016-Nov-22 03:33N 36°50' W 001°37'6315.3
2016-Nov-21 23:27N 37°32' W 000°38'3214.7
2016-Nov-21 21:18N 37°57' W 000°15'8512.6
2016-Nov-21 14:33N 39°22' W 000°10'8 7.5
2016-Nov-21 13:28N 39°27' W 000°19'  
Track history (hours):
 
Tides and Currents Weather Stations Pressure Air Temp Water Temp Dewpoint Dewpoint Depression Visibility Wind Speed Wind Dir Waves Ship Positions

Seaspan Chiwan

Last reported at 2016-Dec-01 13:16 UTC. Time now 2016-Dec-09 00:08 UTC.
Position N 16°10' W 062°55'.

Length 260 m; draft 12 m.

Type: Cargo ship. MMSI: 477014500.

Date/timePositionNaut miles runAvg speedWind from/ knotsBaromVisibWave heightAir tempDewpointWater temp
2016-Dec-01 13:16N 16°10' W 062°55'1318.2
2016-Dec-01 12:33N 16°14' W 062°42'1818.1
2016-Dec-01 11:34N 16°21' W 062°25'1818.1
2016-Dec-01 10:33N 16°27' W 062°07'1818.4
2016-Dec-01 09:33N 16°37' W 061°51'1818.2
2016-Dec-01 08:34N 16°46' W 061°34'1918.5
2016-Dec-01 07:33N 16°56' W 061°18'1818.4
2016-Dec-01 06:34N 17°06' W 061°02'1818.4
2016-Dec-01 05:33N 17°16' W 060°46'  
2016-Nov-22 09:12N 36°17' W 003°13'1014.8
2016-Nov-22 08:32N 36°19' W 003°01'1515.0
2016-Nov-22 07:33N 36°22' W 002°43'4915.2
2016-Nov-22 04:21N 36°42' W 001°48'1215.4
2016-Nov-22 03:33N 36°50' W 001°37'6315.3
2016-Nov-21 23:27N 37°32' W 000°38'3214.7
2016-Nov-21 21:18N 37°57' W 000°15'8512.6
2016-Nov-21 14:33N 39°22' W 000°10'8 7.5
2016-Nov-21 13:28N 39°27' W 000°19'  

Dump ship's entire track history